sensor_id;sensor_type;location;lat;lon;timestamp;pressure;altitude;pressure_sealevel;temperature;humidity
49541;BME280;35432;43.566;1.398;2023-03-14T00:01:16;99608.13;;;11.04;nan
49541;BME280;35432;43.566;1.398;2023-03-14T00:03:42;99610.75;;;11.02;nan
49541;BME280;35432;43.566;1.398;2023-03-14T00:06:09;99614.28;;;11.01;nan
49541;BME280;35432;43.566;1.398;2023-03-14T00:08:35;99617.88;;;10.99;nan
49541;BME280;35432;43.566;1.398;2023-03-14T00:11:08;99610.00;;;10.96;nan
49541;BME280;35432;43.566;1.398;2023-03-14T00:13:34;99608.25;;;10.95;nan
49541;BME280;35432;43.566;1.398;2023-03-14T00:16:08;99601.28;;;10.90;nan
49541;BME280;35432;43.566;1.398;2023-03-14T00:18:34;99599.59;;;10.88;nan
49541;BME280;35432;43.566;1.398;2023-03-14T00:21:01;99605.78;;;10.85;nan
49541;BME280;35432;43.566;1.398;2023-03-14T00:23:28;99604.94;;;10.83;nan
49541;BME280;35432;43.566;1.398;2023-03-14T00:26:01;99609.34;;;10.81;nan
49541;BME280;35432;43.566;1.398;2023-03-14T00:28:27;99609.31;;;10.84;nan
49541;BME280;35432;43.566;1.398;2023-03-14T00:30:53;99613.66;;;10.87;nan
49541;BME280;35432;43.566;1.398;2023-03-14T00:33:18;99605.72;;;10.88;nan
49541;BME280;35432;43.566;1.398;2023-03-14T00:35:58;99610.09;;;10.91;nan
49541;BME280;35432;43.566;1.398;2023-03-14T00:38:25;99610.00;;;10.96;nan
49541;BME280;35432;43.566;1.398;2023-03-14T00:40:52;99615.19;;;11.02;nan
49541;BME280;35432;43.566;1.398;2023-03-14T00:43:18;99601.91;;;11.08;nan
49541;BME280;35432;43.566;1.398;2023-03-14T00:45:47;99612.38;;;11.11;nan
49541;BME280;35432;43.566;1.398;2023-03-14T00:48:12;99601.84;;;11.11;nan
49541;BME280;35432;43.566;1.398;2023-03-14T00:50:38;99608.97;;;11.06;nan
49541;BME280;35432;43.566;1.398;2023-03-14T00:53:04;99608.06;;;11.05;nan
49541;BME280;35432;43.566;1.398;2023-03-14T00:55:29;99604.59;;;11.03;nan
49541;BME280;35432;43.566;1.398;2023-03-14T00:57:54;99609.06;;;11.00;nan
49541;BME280;35432;43.566;1.398;2023-03-14T01:00:20;99605.63;;;10.95;nan
49541;BME280;35432;43.566;1.398;2023-03-14T01:02:45;99605.72;;;10.88;nan
49541;BME280;35432;43.566;1.398;2023-03-14T01:05:11;99607.47;;;10.89;nan
49541;BME280;35432;43.566;1.398;2023-03-14T01:07:36;99610.09;;;10.91;nan
49541;BME280;35432;43.566;1.398;2023-03-14T01:10:04;99618.00;;;10.89;nan
49541;BME280;35432;43.566;1.398;2023-03-14T01:12:30;99621.53;;;10.88;nan
49541;BME280;35432;43.566;1.398;2023-03-14T01:14:55;99607.50;;;10.86;nan
49541;BME280;35432;43.566;1.398;2023-03-14T01:17:20;99604.09;;;10.81;nan
49541;BME280;35432;43.566;1.398;2023-03-14T01:19:46;99607.56;;;10.83;nan
49541;BME280;35432;43.566;1.398;2023-03-14T01:22:12;99615.47;;;10.82;nan
49541;BME280;35432;43.566;1.398;2023-03-14T01:24:37;99612.00;;;10.81;nan
49541;BME280;35432;43.566;1.398;2023-03-14T01:27:03;99606.72;;;10.81;nan
49541;BME280;35432;43.566;1.398;2023-03-14T01:29:29;99604.09;;;10.81;nan
49541;BME280;35432;43.566;1.398;2023-03-14T01:31:55;99604.03;;;10.83;nan
49541;BME280;35432;43.566;1.398;2023-03-14T01:34:20;99610.22;;;10.82;nan
49541;BME280;35432;43.566;1.398;2023-03-14T01:36:46;99604.09;;;10.81;nan
49541;BME280;35432;43.566;1.398;2023-03-14T01:39:11;99602.28;;;10.83;nan
49541;BME280;35432;43.566;1.398;2023-03-14T01:41:38;99604.03;;;10.84;nan
49541;BME280;35432;43.566;1.398;2023-03-14T01:44:04;99612.78;;;10.86;nan
49541;BME280;35432;43.566;1.398;2023-03-14T01:46:50;99613.59;;;10.90;nan
49541;BME280;35432;43.566;1.398;2023-03-14T01:51:56;99614.34;;;11.00;nan
49541;BME280;35432;43.566;1.398;2023-03-14T01:54:38;99606.25;;;11.09;nan
49541;BME280;35432;43.566;1.398;2023-03-14T01:57:08;99603.44;;;11.22;nan
49541;BME280;35432;43.566;1.398;2023-03-14T01:59:37;99599.78;;;11.29;nan
49541;BME280;35432;43.566;1.398;2023-03-14T02:02:06;99599.59;;;11.38;nan
49541;BME280;35432;43.566;1.398;2023-03-14T02:04:36;99594.13;;;11.51;nan
49541;BME280;35432;43.566;1.398;2023-03-14T02:07:16;99600.19;;;11.54;nan
49541;BME280;35432;43.566;1.398;2023-03-14T02:09:43;99602.69;;;11.62;nan
49541;BME280;35432;43.566;1.398;2023-03-14T02:12:11;99597.28;;;11.70;nan
49541;BME280;35432;43.566;1.398;2023-03-14T02:14:39;99590.03;;;11.80;nan
49541;BME280;35432;43.566;1.398;2023-03-14T02:17:06;99581.16;;;11.84;nan
49541;BME280;35432;43.566;1.398;2023-03-14T02:22:12;99568.81;;;11.86;nan
49541;BME280;35432;43.566;1.398;2023-03-14T02:27:18;99568.78;;;11.87;nan
49541;BME280;35432;43.566;1.398;2023-03-14T02:29:53;99572.28;;;11.88;nan
49541;BME280;35432;43.566;1.398;2023-03-14T02:32:21;99573.06;;;11.93;nan
49541;BME280;35432;43.566;1.398;2023-03-14T02:34:50;99568.75;;;11.89;nan
49541;BME280;35432;43.566;1.398;2023-03-14T02:37:19;99566.91;;;11.92;nan
49541;BME280;35432;43.566;1.398;2023-03-14T02:39:46;99572.13;;;11.96;nan
49541;BME280;35432;43.566;1.398;2023-03-14T02:42:14;99575.66;;;11.95;nan
49541;BME280;35432;43.566;1.398;2023-03-14T02:44:55;99584.50;;;11.92;nan
49541;BME280;35432;43.566;1.398;2023-03-14T02:47:29;99590.69;;;11.91;nan
49541;BME280;35432;43.566;1.398;2023-03-14T02:50:06;99608.31;;;11.90;nan
49541;BME280;35432;43.566;1.398;2023-03-14T02:52:32;99586.09;;;12.02;nan
49541;BME280;35432;43.566;1.398;2023-03-14T02:54:57;99605.19;;;12.14;nan
49541;BME280;35432;43.566;1.398;2023-03-14T02:57:23;99601.78;;;12.09;nan
49541;BME280;35432;43.566;1.398;2023-03-14T02:59:48;99588.44;;;12.16;nan
49541;BME280;35432;43.566;1.398;2023-03-14T03:02:13;99591.75;;;12.26;nan
49541;BME280;35432;43.566;1.398;2023-03-14T03:04:39;99601.41;;;12.27;nan
49541;BME280;35432;43.566;1.398;2023-03-14T03:07:04;99596.88;;;12.34;nan
49541;BME280;35432;43.566;1.398;2023-03-14T03:09:29;99592.38;;;12.38;nan
49541;BME280;35432;43.566;1.398;2023-03-14T03:11:55;99603.84;;;12.37;nan
49541;BME280;35432;43.566;1.398;2023-03-14T03:14:20;99608.25;;;12.36;nan
49541;BME280;35432;43.566;1.398;2023-03-14T03:16:45;99595.06;;;12.36;nan
49541;BME280;35432;43.566;1.398;2023-03-14T03:19:11;99594.94;;;12.41;nan
49541;BME280;35432;43.566;1.398;2023-03-14T03:21:38;99597.56;;;12.42;nan
49541;BME280;35432;43.566;1.398;2023-03-14T03:24:04;99603.84;;;12.37;nan
49541;BME280;35432;43.566;1.398;2023-03-14T03:26:29;99609.09;;;12.38;nan
49541;BME280;35432;43.566;1.398;2023-03-14T03:28:55;99619.59;;;12.41;nan
49541;BME280;35432;43.566;1.398;2023-03-14T03:31:20;99621.31;;;12.42;nan
49541;BME280;35432;43.566;1.398;2023-03-14T03:33:45;99622.22;;;12.43;nan
49541;BME280;35432;43.566;1.398;2023-03-14T03:36:11;99635.34;;;12.46;nan
49541;BME280;35432;43.566;1.398;2023-03-14T03:38:36;99645.09;;;12.41;nan
49541;BME280;35432;43.566;1.398;2023-03-14T03:41:04;99640.84;;;12.35;nan
49541;BME280;35432;43.566;1.398;2023-03-14T03:43:29;99647.00;;;12.35;nan
49541;BME280;35432;43.566;1.398;2023-03-14T03:45:55;99636.44;;;12.35;nan
49541;BME280;35432;43.566;1.398;2023-03-14T03:48:20;99640.88;;;12.33;nan
49541;BME280;35432;43.566;1.398;2023-03-14T03:50:46;99633.03;;;12.29;nan
49541;BME280;35432;43.566;1.398;2023-03-14T03:53:12;99650.66;;;12.28;nan
49541;BME280;35432;43.566;1.398;2023-03-14T03:55:37;99659.50;;;12.27;nan
49541;BME280;35432;43.566;1.398;2023-03-14T03:58:02;99652.59;;;12.20;nan
49541;BME280;35432;43.566;1.398;2023-03-14T04:00:28;99671.25;;;12.11;nan
49541;BME280;35432;43.566;1.398;2023-03-14T04:02:53;99663.19;;;12.17;nan
49541;BME280;35432;43.566;1.398;2023-03-14T04:05:19;99679.25;;;12.08;nan
49541;BME280;35432;43.566;1.398;2023-03-14T04:07:44;99675.75;;;12.05;nan
49541;BME280;35432;43.566;1.398;2023-03-14T04:10:10;99666.03;;;12.08;nan
49541;BME280;35432;43.566;1.398;2023-03-14T04:12:35;99671.31;;;12.08;nan
49541;BME280;35432;43.566;1.398;2023-03-14T04:15:01;99676.69;;;12.03;nan
49541;BME280;35432;43.566;1.398;2023-03-14T04:17:26;99691.75;;;11.96;nan
49541;BME280;35432;43.566;1.398;2023-03-14T04:19:51;99711.19;;;11.90;nan
49541;BME280;35432;43.566;1.398;2023-03-14T04:22:19;99705.94;;;11.89;nan
49541;BME280;35432;43.566;1.398;2023-03-14T04:24:44;99701.69;;;11.80;nan
49541;BME280;35432;43.566;1.398;2023-03-14T04:27:09;99705.34;;;11.74;nan
49541;BME280;35432;43.566;1.398;2023-03-14T04:29:35;99715.19;;;11.63;nan
49541;BME280;35432;43.566;1.398;2023-03-14T04:32:00;99717.16;;;11.52;nan
49541;BME280;35432;43.566;1.398;2023-03-14T04:34:26;99713.63;;;11.53;nan
49541;BME280;35432;43.566;1.398;2023-03-14T04:36:51;99714.63;;;11.45;nan
49541;BME280;35432;43.566;1.398;2023-03-14T04:39:16;99704.09;;;11.42;nan
49541;BME280;35432;43.566;1.398;2023-03-14T04:41:42;99728.59;;;11.49;nan
49541;BME280;35432;43.566;1.398;2023-03-14T04:44:07;99717.25;;;11.45;nan
49541;BME280;35432;43.566;1.398;2023-03-14T04:46:33;99715.53;;;11.43;nan
49541;BME280;35432;43.566;1.398;2023-03-14T04:48:58;99722.53;;;11.45;nan
49541;BME280;35432;43.566;1.398;2023-03-14T04:51:23;99719.09;;;11.40;nan
49541;BME280;35432;43.566;1.398;2023-03-14T04:53:52;99733.94;;;11.44;nan
49541;BME280;35432;43.566;1.398;2023-03-14T04:56:17;99732.19;;;11.45;nan
49541;BME280;35432;43.566;1.398;2023-03-14T04:58:43;99742.69;;;11.49;nan
49541;BME280;35432;43.566;1.398;2023-03-14T05:01:09;99753.22;;;11.48;nan
49541;BME280;35432;43.566;1.398;2023-03-14T05:03:35;99756.66;;;11.55;nan
49541;BME280;35432;43.566;1.398;2023-03-14T05:06:04;99755.94;;;11.45;nan
49541;BME280;35432;43.566;1.398;2023-03-14T05:08:29;99751.50;;;11.47;nan
49541;BME280;35432;43.566;1.398;2023-03-14T05:10:56;99766.47;;;11.46;nan
49541;BME280;35432;43.566;1.398;2023-03-14T05:13:22;99763.06;;;11.38;nan
49541;BME280;35432;43.566;1.398;2023-03-14T05:15:48;99776.13;;;11.46;nan
49541;BME280;35432;43.566;1.398;2023-03-14T05:18:13;99775.16;;;11.52;nan
49541;BME280;35432;43.566;1.398;2023-03-14T05:20:39;99753.13;;;11.56;nan
49541;BME280;35432;43.566;1.398;2023-03-14T05:23:04;99760.25;;;11.51;nan
49541;BME280;35432;43.566;1.398;2023-03-14T05:25:30;99760.34;;;11.43;nan
49541;BME280;35432;43.566;1.398;2023-03-14T05:27:55;99761.19;;;11.45;nan
49541;BME280;35432;43.566;1.398;2023-03-14T05:30:21;99776.09;;;11.47;nan
49541;BME280;35432;43.566;1.398;2023-03-14T05:32:47;99771.63;;;11.53;nan
49541;BME280;35432;43.566;1.398;2023-03-14T05:35:13;99770.00;;;11.44;nan
49541;BME280;35432;43.566;1.398;2023-03-14T05:37:38;99777.06;;;11.40;nan
49541;BME280;35432;43.566;1.398;2023-03-14T05:40:05;99781.41;;;11.44;nan
49541;BME280;35432;43.566;1.398;2023-03-14T05:42:32;99787.56;;;11.46;nan
49541;BME280;35432;43.566;1.398;2023-03-14T05:44:57;99791.09;;;11.45;nan
49541;BME280;35432;43.566;1.398;2023-03-14T05:47:22;99795.41;;;11.48;nan
49541;BME280;35432;43.566;1.398;2023-03-14T05:49:48;99785.75;;;11.48;nan
49541;BME280;35432;43.566;1.398;2023-03-14T05:52:14;99788.34;;;11.50;nan
49541;BME280;35432;43.566;1.398;2023-03-14T05:54:39;99787.47;;;11.51;nan
49541;BME280;35432;43.566;1.398;2023-03-14T05:57:05;99797.16;;;11.51;nan
49541;BME280;35432;43.566;1.398;2023-03-14T05:59:30;99804.16;;;11.52;nan
49541;BME280;35432;43.566;1.398;2023-03-14T06:01:56;99798.09;;;11.46;nan
49541;BME280;35432;43.566;1.398;2023-03-14T06:04:21;99799.78;;;11.51;nan
49541;BME280;35432;43.566;1.398;2023-03-14T06:06:47;99796.25;;;11.52;nan
49541;BME280;35432;43.566;1.398;2023-03-14T06:09:12;99815.56;;;11.52;nan
49541;BME280;35432;43.566;1.398;2023-03-14T06:11:37;99817.31;;;11.55;nan
49541;BME280;35432;43.566;1.398;2023-03-14T06:14:03;99823.44;;;11.55;nan
49541;BME280;35432;43.566;1.398;2023-03-14T06:16:28;99826.84;;;11.63;nan
49541;BME280;35432;43.566;1.398;2023-03-14T06:18:56;99833.88;;;11.63;nan
49541;BME280;35432;43.566;1.398;2023-03-14T06:21:21;99840.06;;;11.60;nan
49541;BME280;35432;43.566;1.398;2023-03-14T06:23:47;99836.50;;;11.63;nan
49541;BME280;35432;43.566;1.398;2023-03-14T06:26:12;99855.81;;;11.65;nan
49541;BME280;35432;43.566;1.398;2023-03-14T06:28:38;99854.00;;;11.67;nan
49541;BME280;35432;43.566;1.398;2023-03-14T06:31:04;99873.44;;;11.63;nan
49541;BME280;35432;43.566;1.398;2023-03-14T06:33:30;99876.06;;;11.65;nan
49541;BME280;35432;43.566;1.398;2023-03-14T06:35:56;99868.19;;;11.60;nan
49541;BME280;35432;43.566;1.398;2023-03-14T06:38:21;99874.38;;;11.59;nan
49541;BME280;35432;43.566;1.398;2023-03-14T06:40:46;99876.13;;;11.60;nan
49541;BME280;35432;43.566;1.398;2023-03-14T06:43:12;99883.06;;;11.66;nan
49541;BME280;35432;43.566;1.398;2023-03-14T06:45:37;99883.03;;;11.67;nan
49541;BME280;35432;43.566;1.398;2023-03-14T06:48:03;99879.38;;;11.76;nan
49541;BME280;35432;43.566;1.398;2023-03-14T06:50:28;99888.97;;;11.83;nan
49541;BME280;35432;43.566;1.398;2023-03-14T06:52:54;99889.78;;;11.87;nan
49541;BME280;35432;43.566;1.398;2023-03-14T06:55:19;99896.00;;;11.81;nan
49541;BME280;35432;43.566;1.398;2023-03-14T06:57:45;99897.63;;;11.90;nan
49541;BME280;35432;43.566;1.398;2023-03-14T07:00:12;99894.09;;;11.92;nan
49541;BME280;35432;43.566;1.398;2023-03-14T07:02:38;99898.47;;;11.94;nan
49541;BME280;35432;43.566;1.398;2023-03-14T07:05:04;99906.31;;;12.01;nan
49541;BME280;35432;43.566;1.398;2023-03-14T07:07:30;99899.25;;;12.03;nan
49541;BME280;35432;43.566;1.398;2023-03-14T07:09:55;99912.31;;;12.11;nan
49541;BME280;35432;43.566;1.398;2023-03-14T07:12:20;99911.38;;;12.14;nan
49541;BME280;35432;43.566;1.398;2023-03-14T07:14:46;99926.25;;;12.19;nan
49541;BME280;35432;43.566;1.398;2023-03-14T07:17:11;99927.16;;;12.18;nan
49541;BME280;35432;43.566;1.398;2023-03-14T07:19:37;99933.28;;;12.20;nan
49541;BME280;35432;43.566;1.398;2023-03-14T07:22:04;99939.41;;;12.23;nan
49541;BME280;35432;43.566;1.398;2023-03-14T07:24:29;99941.97;;;12.27;nan
49541;BME280;35432;43.566;1.398;2023-03-14T07:26:54;99941.84;;;12.35;nan
49541;BME280;35432;43.566;1.398;2023-03-14T07:29:20;99947.78;;;12.48;nan
49541;BME280;35432;43.566;1.398;2023-03-14T07:31:45;99944.94;;;12.60;nan
49541;BME280;35432;43.566;1.398;2023-03-14T07:34:11;99950.97;;;12.67;nan
49541;BME280;35432;43.566;1.398;2023-03-14T07:36:36;99961.41;;;12.75;nan
49541;BME280;35432;43.566;1.398;2023-03-14T07:39:01;99953.41;;;12.80;nan
49541;BME280;35432;43.566;1.398;2023-03-14T07:41:27;99965.97;;;13.15;nan
49541;BME280;35432;43.566;1.398;2023-03-14T07:43:52;99963.28;;;13.61;nan
49541;BME280;35432;43.566;1.398;2023-03-14T07:46:18;99968.16;;;13.81;nan
49541;BME280;35432;43.566;1.398;2023-03-14T07:48:43;99978.50;;;13.92;nan
49541;BME280;35432;43.566;1.398;2023-03-14T07:51:09;99973.00;;;14.01;nan
49541;BME280;35432;43.566;1.398;2023-03-14T07:53:34;99973.47;;;14.19;nan
49541;BME280;35432;43.566;1.398;2023-03-14T07:56:00;99974.53;;;14.48;nan
49541;BME280;35432;43.566;1.398;2023-03-14T07:58:25;99980.59;;;14.89;nan
49541;BME280;35432;43.566;1.398;2023-03-14T08:00:51;99982.50;;;15.17;nan
49541;BME280;35432;43.566;1.398;2023-03-14T08:03:17;99975.00;;;16.22;nan
49541;BME280;35432;43.566;1.398;2023-03-14T08:05:43;99973.28;;;17.97;nan
49541;BME280;35432;43.566;1.398;2023-03-14T08:08:11;99959.06;;;18.84;nan
49541;BME280;35432;43.566;1.398;2023-03-14T08:10:37;99965.09;;;20.27;nan
49541;BME280;35432;43.566;1.398;2023-03-14T08:13:02;99963.97;;;21.52;nan
49541;BME280;35432;43.566;1.398;2023-03-14T08:15:29;99955.22;;;23.06;nan
49541;BME280;35432;43.566;1.398;2023-03-14T08:17:55;99956.81;;;23.96;nan
49541;BME280;35432;43.566;1.398;2023-03-14T08:20:24;99946.81;;;25.58;nan
49541;BME280;35432;43.566;1.398;2023-03-14T08:22:50;99952.53;;;26.40;nan
49541;BME280;35432;43.566;1.398;2023-03-14T08:25:16;99948.13;;;27.33;nan
49541;BME280;35432;43.566;1.398;2023-03-14T08:27:42;99964.47;;;27.88;nan
49541;BME280;35432;43.566;1.398;2023-03-14T08:30:10;99974.94;;;27.70;nan
49541;BME280;35432;43.566;1.398;2023-03-14T08:32:36;99975.03;;;25.65;nan
49541;BME280;35432;43.566;1.398;2023-03-14T08:35:01;99998.94;;;24.52;nan
49541;BME280;35432;43.566;1.398;2023-03-14T08:37:27;99992.03;;;23.04;nan
49541;BME280;35432;43.566;1.398;2023-03-14T08:39:52;99997.41;;;22.59;nan
49541;BME280;35432;43.566;1.398;2023-03-14T08:42:18;99997.47;;;21.44;nan
49541;BME280;35432;43.566;1.398;2023-03-14T08:44:44;100013.47;;;20.40;nan
49541;BME280;35432;43.566;1.398;2023-03-14T08:47:09;100018.44;;;19.51;nan
49541;BME280;35432;43.566;1.398;2023-03-14T08:49:35;100037.91;;;18.71;nan
49541;BME280;35432;43.566;1.398;2023-03-14T08:52:02;100030.59;;;18.09;nan
49541;BME280;35432;43.566;1.398;2023-03-14T08:54:27;100026.91;;;17.88;nan
49541;BME280;35432;43.566;1.398;2023-03-14T08:56:52;100029.63;;;17.86;nan
49541;BME280;35432;43.566;1.398;2023-03-14T08:59:18;100037.78;;;17.58;nan
49541;BME280;35432;43.566;1.398;2023-03-14T09:01:43;100032.94;;;17.20;nan
49541;BME280;35432;43.566;1.398;2023-03-14T09:04:08;100039.00;;;16.70;nan
49541;BME280;35432;43.566;1.398;2023-03-14T09:06:35;100042.69;;;16.39;nan
49541;BME280;35432;43.566;1.398;2023-03-14T09:09:00;100038.47;;;16.03;nan
49541;BME280;35432;43.566;1.398;2023-03-14T09:11:26;100040.44;;;15.96;nan
49541;BME280;35432;43.566;1.398;2023-03-14T09:13:51;100042.56;;;16.13;nan
49541;BME280;35432;43.566;1.398;2023-03-14T09:16:17;100044.88;;;16.24;nan
49541;BME280;35432;43.566;1.398;2023-03-14T09:18:42;100044.63;;;16.33;nan
49541;BME280;35432;43.566;1.398;2023-03-14T09:21:08;100053.41;;;16.35;nan
49541;BME280;35432;43.566;1.398;2023-03-14T09:23:33;100050.53;;;16.13;nan
49541;BME280;35432;43.566;1.398;2023-03-14T09:25:59;100055.69;;;15.88;nan
49541;BME280;35432;43.566;1.398;2023-03-14T09:28:25;100068.94;;;15.58;nan
49541;BME280;35432;43.566;1.398;2023-03-14T09:30:51;100077.81;;;15.24;nan
49541;BME280;35432;43.566;1.398;2023-03-14T09:33:17;100079.50;;;14.91;nan
49541;BME280;35432;43.566;1.398;2023-03-14T09:35:42;100085.66;;;14.54;nan
49541;BME280;35432;43.566;1.398;2023-03-14T09:38:08;100089.78;;;14.28;nan
49541;BME280;35432;43.566;1.398;2023-03-14T09:40:35;100083.28;;;14.02;nan
49541;BME280;35432;43.566;1.398;2023-03-14T09:43:01;100105.81;;;13.80;nan
49541;BME280;35432;43.566;1.398;2023-03-14T09:45:31;100124.59;;;13.66;nan
49541;BME280;35432;43.566;1.398;2023-03-14T09:47:58;100120.97;;;13.70;nan
49541;BME280;35432;43.566;1.398;2023-03-14T09:50:25;100116.56;;;13.70;nan
49541;BME280;35432;43.566;1.398;2023-03-14T09:52:56;100138.28;;;13.39;nan
49541;BME280;35432;43.566;1.398;2023-03-14T09:55:24;100155.78;;;12.93;nan
49541;BME280;35432;43.566;1.398;2023-03-14T09:57:54;100164.38;;;12.48;nan
49541;BME280;35432;43.566;1.398;2023-03-14T10:00:22;100146.34;;;12.12;nan
49541;BME280;35432;43.566;1.398;2023-03-14T10:03:29;100155.53;;;11.74;nan
49541;BME280;35432;43.566;1.398;2023-03-14T10:05:56;100148.38;;;11.85;nan
49541;BME280;35432;43.566;1.398;2023-03-14T10:08:22;100152.00;;;11.76;nan
49541;BME280;35432;43.566;1.398;2023-03-14T10:10:47;100152.09;;;11.66;nan
49541;BME280;35432;43.566;1.398;2023-03-14T10:13:22;100154.34;;;12.04;nan
49541;BME280;35432;43.566;1.398;2023-03-14T10:16:01;100161.19;;;13.40;nan
49541;BME280;35432;43.566;1.398;2023-03-14T10:18:29;100145.09;;;16.20;nan
49541;BME280;35432;43.566;1.398;2023-03-14T10:23:48;100116.06;;;20.56;nan
49541;BME280;35432;43.566;1.398;2023-03-14T10:26:16;100110.72;;;21.47;nan
49541;BME280;35432;43.566;1.398;2023-03-14T10:28:47;100107.09;;;21.48;nan
49541;BME280;35432;43.566;1.398;2023-03-14T10:31:14;100108.19;;;21.44;nan
49541;BME280;35432;43.566;1.398;2023-03-14T10:33:40;100103.81;;;21.94;nan
49541;BME280;35432;43.566;1.398;2023-03-14T10:36:19;100095.75;;;22.60;nan
49541;BME280;35432;43.566;1.398;2023-03-14T10:38:46;100102.13;;;22.74;nan
49541;BME280;35432;43.566;1.398;2023-03-14T10:41:26;100086.94;;;22.89;nan
49541;BME280;35432;43.566;1.398;2023-03-14T10:43:59;100092.78;;;23.28;nan
49541;BME280;35432;43.566;1.398;2023-03-14T10:46:27;100083.88;;;24.00;nan
49541;BME280;35432;43.566;1.398;2023-03-14T10:48:54;100077.34;;;24.60;nan
49541;BME280;35432;43.566;1.398;2023-03-14T10:51:26;100057.88;;;25.76;nan
49541;BME280;35432;43.566;1.398;2023-03-14T10:54:15;100055.28;;;25.62;nan
49541;BME280;35432;43.566;1.398;2023-03-14T10:56:44;100062.56;;;25.34;nan
49541;BME280;35432;43.566;1.398;2023-03-14T10:59:14;100064.44;;;25.33;nan
49541;BME280;35432;43.566;1.398;2023-03-14T11:01:47;100054.97;;;24.87;nan
49541;BME280;35432;43.566;1.398;2023-03-14T11:15:02;100126.25;;;20.67;nan
49541;BME280;35432;43.566;1.398;2023-03-14T11:17:38;100133.94;;;19.57;nan
49541;BME280;35432;43.566;1.398;2023-03-14T11:22:51;100121.22;;;19.62;nan
49541;BME280;35432;43.566;1.398;2023-03-14T11:25:44;100115.69;;;20.83;nan
49541;BME280;35432;43.566;1.398;2023-03-14T11:31:10;100129.16;;;21.18;nan
49541;BME280;35432;43.566;1.398;2023-03-14T11:33:53;100142.19;;;20.32;nan
49541;BME280;35432;43.566;1.398;2023-03-14T11:36:41;100166.53;;;19.22;nan
49541;BME280;35432;43.566;1.398;2023-03-14T11:39:14;100179.88;;;18.06;nan
49541;BME280;35432;43.566;1.398;2023-03-14T11:41:43;100181.56;;;17.04;nan
49541;BME280;35432;43.566;1.398;2023-03-14T11:44:22;100187.50;;;15.92;nan
49541;BME280;35432;43.566;1.398;2023-03-14T11:47:11;100187.97;;;15.39;nan
49541;BME280;35432;43.566;1.398;2023-03-14T11:49:48;100190.38;;;14.74;nan
49541;BME280;35432;43.566;1.398;2023-03-14T11:52:20;100178.13;;;15.06;nan
49541;BME280;35432;43.566;1.398;2023-03-14T11:54:52;100176.72;;;15.63;nan
49541;BME280;35432;43.566;1.398;2023-03-14T11:57:22;100149.25;;;16.59;nan
49541;BME280;35432;43.566;1.398;2023-03-14T12:00:16;100139.13;;;17.78;nan
49541;BME280;35432;43.566;1.398;2023-03-14T12:08:42;100129.31;;;19.19;nan
49541;BME280;35432;43.566;1.398;2023-03-14T12:13:48;100125.72;;;19.61;nan
49541;BME280;35432;43.566;1.398;2023-03-14T12:18:50;100110.97;;;19.94;nan
49541;BME280;35432;43.566;1.398;2023-03-14T12:21:17;100103.41;;;19.83;nan
49541;BME280;35432;43.566;1.398;2023-03-14T12:28:36;100114.41;;;18.69;nan
49541;BME280;35432;43.566;1.398;2023-03-14T12:49:42;100060.31;;;17.97;nan
49541;BME280;35432;43.566;1.398;2023-03-14T12:57:42;100056.34;;;18.08;nan
49541;BME280;35432;43.566;1.398;2023-03-14T13:01:02;100054.56;;;18.09;nan
49541;BME280;35432;43.566;1.398;2023-03-14T13:03:19;100044.66;;;18.35;nan
49541;BME280;35432;43.566;1.398;2023-03-14T13:05:58;100034.13;;;18.54;nan
49541;BME280;35432;43.566;1.398;2023-03-14T13:08:44;100026.50;;;18.45;nan
49541;BME280;35432;43.566;1.398;2023-03-14T13:11:19;100032.03;;;18.83;nan
49541;BME280;35432;43.566;1.398;2023-03-14T13:13:47;100025.00;;;18.38;nan
49541;BME280;35432;43.566;1.398;2023-03-14T13:16:17;100020.91;;;18.06;nan
49541;BME280;35432;43.566;1.398;2023-03-14T13:18:45;100015.59;;;17.81;nan
49541;BME280;35432;43.566;1.398;2023-03-14T13:21:15;100029.69;;;17.61;nan
49541;BME280;35432;43.566;1.398;2023-03-14T13:23:55;100035.38;;;17.26;nan
49541;BME280;35432;43.566;1.398;2023-03-14T13:26:21;100053.22;;;16.96;nan
49541;BME280;35432;43.566;1.398;2023-03-14T13:28:48;100058.31;;;16.48;nan
49541;BME280;35432;43.566;1.398;2023-03-14T13:31:23;100051.78;;;16.01;nan
49541;BME280;35432;43.566;1.398;2023-03-14T13:34:00;100055.50;;;15.64;nan
49541;BME280;35432;43.566;1.398;2023-03-14T13:36:26;100062.72;;;15.59;nan
49541;BME280;35432;43.566;1.398;2023-03-14T13:38:59;100055.59;;;15.92;nan
49541;BME280;35432;43.566;1.398;2023-03-14T13:41:27;100054.72;;;15.92;nan
49541;BME280;35432;43.566;1.398;2023-03-14T13:44:01;100051.88;;;15.98;nan
49541;BME280;35432;43.566;1.398;2023-03-14T13:46:27;100057.56;;;15.84;nan
49541;BME280;35432;43.566;1.398;2023-03-14T13:48:58;100062.34;;;15.71;nan
49541;BME280;35432;43.566;1.398;2023-03-14T13:51:24;100070.50;;;15.65;nan
49541;BME280;35432;43.566;1.398;2023-03-14T13:53:54;100068.66;;;15.67;nan
49541;BME280;35432;43.566;1.398;2023-03-14T13:56:22;100075.72;;;15.68;nan
49541;BME280;35432;43.566;1.398;2023-03-14T13:58:48;100083.16;;;15.87;nan
49541;BME280;35432;43.566;1.398;2023-03-14T14:01:17;100088.09;;;16.01;nan
49541;BME280;35432;43.566;1.398;2023-03-14T14:03:46;100100.69;;;15.94;nan
49541;BME280;35432;43.566;1.398;2023-03-14T14:06:36;100098.50;;;15.75;nan
49541;BME280;35432;43.566;1.398;2023-03-14T14:09:40;100092.41;;;15.40;nan
49541;BME280;35432;43.566;1.398;2023-03-14T14:12:19;100099.53;;;15.38;nan
49541;BME280;35432;43.566;1.398;2023-03-14T14:17:32;100095.41;;;15.61;nan
49541;BME280;35432;43.566;1.398;2023-03-14T14:20:01;100091.13;;;15.55;nan
49541;BME280;35432;43.566;1.398;2023-03-14T14:22:29;100080.97;;;15.38;nan
49541;BME280;35432;43.566;1.398;2023-03-14T14:24:55;100078.59;;;15.27;nan
49541;BME280;35432;43.566;1.398;2023-03-14T14:27:35;100088.59;;;15.17;nan
49541;BME280;35432;43.566;1.398;2023-03-14T14:30:04;100098.63;;;15.04;nan
49541;BME280;35432;43.566;1.398;2023-03-14T14:32:37;100101.78;;;14.84;nan